sensor_id;sensor_type;location;lat;lon;timestamp;P1;durP1;ratioP1;P2;durP2;ratioP2
1879;SDS011;49285;49.002;8.390;2023-11-21T00:00:33;7.37;;;2.33;;
1879;SDS011;49285;49.002;8.390;2023-11-21T00:02:59;9.20;;;2.87;;
1879;SDS011;49285;49.002;8.390;2023-11-21T00:05:24;6.53;;;2.17;;
1879;SDS011;49285;49.002;8.390;2023-11-21T00:07:50;8.37;;;2.53;;
1879;SDS011;49285;49.002;8.390;2023-11-21T00:10:16;4.50;;;2.70;;
1879;SDS011;49285;49.002;8.390;2023-11-21T00:12:42;8.13;;;2.57;;
1879;SDS011;49285;49.002;8.390;2023-11-21T00:15:08;6.30;;;2.23;;
1879;SDS011;49285;49.002;8.390;2023-11-21T00:17:37;7.53;;;2.60;;
1879;SDS011;49285;49.002;8.390;2023-11-21T00:20:03;8.40;;;2.40;;
1879;SDS011;49285;49.002;8.390;2023-11-21T00:22:32;4.63;;;2.00;;
1879;SDS011;49285;49.002;8.390;2023-11-21T00:24:58;7.33;;;2.20;;
1879;SDS011;49285;49.002;8.390;2023-11-21T00:27:24;7.10;;;2.70;;
1879;SDS011;49285;49.002;8.390;2023-11-21T00:29:49;12.10;;;2.40;;
1879;SDS011;49285;49.002;8.390;2023-11-21T00:32:15;11.00;;;2.63;;
1879;SDS011;49285;49.002;8.390;2023-11-21T00:34:40;5.63;;;2.40;;
1879;SDS011;49285;49.002;8.390;2023-11-21T00:37:07;5.30;;;2.40;;
1879;SDS011;49285;49.002;8.390;2023-11-21T00:39:32;5.13;;;2.13;;
1879;SDS011;49285;49.002;8.390;2023-11-21T00:42:00;3.50;;;2.10;;
1879;SDS011;49285;49.002;8.390;2023-11-21T00:44:25;6.97;;;3.00;;
1879;SDS011;49285;49.002;8.390;2023-11-21T00:46:51;5.37;;;2.10;;
1879;SDS011;49285;49.002;8.390;2023-11-21T00:49:17;7.23;;;2.20;;
1879;SDS011;49285;49.002;8.390;2023-11-21T00:51:42;9.83;;;2.80;;
1879;SDS011;49285;49.002;8.390;2023-11-21T00:54:08;6.33;;;2.00;;
1879;SDS011;49285;49.002;8.390;2023-11-21T00:56:33;4.33;;;2.10;;
1879;SDS011;49285;49.002;8.390;2023-11-21T00:58:59;6.30;;;2.40;;
1879;SDS011;49285;49.002;8.390;2023-11-21T01:01:24;5.13;;;1.80;;
1879;SDS011;49285;49.002;8.390;2023-11-21T01:03:50;5.27;;;2.20;;
1879;SDS011;49285;49.002;8.390;2023-11-21T01:06:16;7.47;;;2.70;;
1879;SDS011;49285;49.002;8.390;2023-11-21T01:08:42;3.77;;;2.20;;
1879;SDS011;49285;49.002;8.390;2023-11-21T01:11:08;4.63;;;2.07;;
1879;SDS011;49285;49.002;8.390;2023-11-21T01:13:35;6.53;;;2.90;;
1879;SDS011;49285;49.002;8.390;2023-11-21T01:16:01;6.40;;;3.20;;
1879;SDS011;49285;49.002;8.390;2023-11-21T01:18:26;7.80;;;2.60;;
1879;SDS011;49285;49.002;8.390;2023-11-21T01:20:52;5.37;;;2.17;;
1879;SDS011;49285;49.002;8.390;2023-11-21T01:23:18;5.87;;;1.97;;
1879;SDS011;49285;49.002;8.390;2023-11-21T01:25:44;4.80;;;2.40;;
1879;SDS011;49285;49.002;8.390;2023-11-21T01:28:10;7.90;;;2.57;;
1879;SDS011;49285;49.002;8.390;2023-11-21T01:30:35;7.57;;;2.70;;
1879;SDS011;49285;49.002;8.390;2023-11-21T01:33:01;4.73;;;1.90;;
1879;SDS011;49285;49.002;8.390;2023-11-21T01:35:26;9.77;;;2.10;;
1879;SDS011;49285;49.002;8.390;2023-11-21T01:37:52;6.50;;;2.17;;
1879;SDS011;49285;49.002;8.390;2023-11-21T01:40:18;8.40;;;1.90;;
1879;SDS011;49285;49.002;8.390;2023-11-21T01:42:44;6.33;;;2.30;;
1879;SDS011;49285;49.002;8.390;2023-11-21T01:45:11;9.20;;;2.37;;
1879;SDS011;49285;49.002;8.390;2023-11-21T01:47:37;5.30;;;2.37;;
1879;SDS011;49285;49.002;8.390;2023-11-21T01:50:06;4.87;;;2.50;;
1879;SDS011;49285;49.002;8.390;2023-11-21T01:52:33;6.20;;;2.40;;
1879;SDS011;49285;49.002;8.390;2023-11-21T01:55:00;5.70;;;2.27;;
1879;SDS011;49285;49.002;8.390;2023-11-21T01:57:26;8.43;;;2.30;;
1879;SDS011;49285;49.002;8.390;2023-11-21T01:59:52;7.50;;;2.43;;
1879;SDS011;49285;49.002;8.390;2023-11-21T02:02:19;6.37;;;2.30;;
1879;SDS011;49285;49.002;8.390;2023-11-21T02:04:45;4.67;;;2.37;;
1879;SDS011;49285;49.002;8.390;2023-11-21T02:07:11;8.10;;;3.10;;
1879;SDS011;49285;49.002;8.390;2023-11-21T02:09:36;4.17;;;2.30;;
1879;SDS011;49285;49.002;8.390;2023-11-21T02:12:07;5.40;;;2.60;;
1879;SDS011;49285;49.002;8.390;2023-11-21T02:14:35;5.50;;;2.20;;
1879;SDS011;49285;49.002;8.390;2023-11-21T02:17:01;4.03;;;3.07;;
1879;SDS011;49285;49.002;8.390;2023-11-21T02:19:28;4.47;;;1.70;;
1879;SDS011;49285;49.002;8.390;2023-11-21T02:21:56;7.20;;;2.43;;
1879;SDS011;49285;49.002;8.390;2023-11-21T02:24:25;11.13;;;2.80;;
1879;SDS011;49285;49.002;8.390;2023-11-21T02:26:52;6.17;;;2.50;;
1879;SDS011;49285;49.002;8.390;2023-11-21T02:29:21;7.97;;;2.50;;
1879;SDS011;49285;49.002;8.390;2023-11-21T02:31:47;4.90;;;2.83;;
1879;SDS011;49285;49.002;8.390;2023-11-21T02:34:17;5.60;;;2.33;;
1879;SDS011;49285;49.002;8.390;2023-11-21T02:36:43;4.67;;;2.00;;
1879;SDS011;49285;49.002;8.390;2023-11-21T02:39:10;4.10;;;1.93;;
1879;SDS011;49285;49.002;8.390;2023-11-21T02:41:38;6.53;;;2.63;;
1879;SDS011;49285;49.002;8.390;2023-11-21T02:44:07;8.30;;;2.10;;
1879;SDS011;49285;49.002;8.390;2023-11-21T02:46:33;5.07;;;2.20;;
1879;SDS011;49285;49.002;8.390;2023-11-21T02:49:03;7.03;;;2.60;;
1879;SDS011;49285;49.002;8.390;2023-11-21T02:51:29;5.80;;;2.80;;
1879;SDS011;49285;49.002;8.390;2023-11-21T02:53:55;8.43;;;2.10;;
1879;SDS011;49285;49.002;8.390;2023-11-21T02:56:24;5.60;;;2.10;;
1879;SDS011;49285;49.002;8.390;2023-11-21T02:58:50;4.70;;;1.87;;
1879;SDS011;49285;49.002;8.390;2023-11-21T03:01:16;5.47;;;2.40;;
1879;SDS011;49285;49.002;8.390;2023-11-21T03:03:42;7.03;;;2.47;;
1879;SDS011;49285;49.002;8.390;2023-11-21T03:06:07;5.37;;;2.50;;
1879;SDS011;49285;49.002;8.390;2023-11-21T03:08:34;5.33;;;1.80;;
1879;SDS011;49285;49.002;8.390;2023-11-21T03:11:00;5.60;;;1.70;;
1879;SDS011;49285;49.002;8.390;2023-11-21T03:13:27;2.53;;;1.73;;
1879;SDS011;49285;49.002;8.390;2023-11-21T03:15:53;6.60;;;2.50;;
1879;SDS011;49285;49.002;8.390;2023-11-21T03:18:19;6.93;;;2.30;;
1879;SDS011;49285;49.002;8.390;2023-11-21T03:20:47;5.57;;;2.40;;
1879;SDS011;49285;49.002;8.390;2023-11-21T03:23:12;8.80;;;2.40;;
1879;SDS011;49285;49.002;8.390;2023-11-21T03:25:38;8.47;;;2.57;;
1879;SDS011;49285;49.002;8.390;2023-11-21T03:28:03;7.07;;;2.03;;
1879;SDS011;49285;49.002;8.390;2023-11-21T03:30:29;5.20;;;2.17;;
1879;SDS011;49285;49.002;8.390;2023-11-21T03:32:55;7.13;;;2.37;;
1879;SDS011;49285;49.002;8.390;2023-11-21T03:35:20;8.10;;;2.10;;
1879;SDS011;49285;49.002;8.390;2023-11-21T03:37:46;5.43;;;2.20;;
1879;SDS011;49285;49.002;8.390;2023-11-21T03:40:12;6.63;;;2.33;;
1879;SDS011;49285;49.002;8.390;2023-11-21T03:42:38;4.80;;;2.80;;
1879;SDS011;49285;49.002;8.390;2023-11-21T03:45:05;5.30;;;2.83;;
1879;SDS011;49285;49.002;8.390;2023-11-21T03:47:31;7.70;;;2.00;;
1879;SDS011;49285;49.002;8.390;2023-11-21T03:49:56;4.80;;;2.03;;
1879;SDS011;49285;49.002;8.390;2023-11-21T03:52:22;5.83;;;2.20;;
1879;SDS011;49285;49.002;8.390;2023-11-21T03:54:48;7.30;;;2.17;;
1879;SDS011;49285;49.002;8.390;2023-11-21T03:57:13;8.10;;;2.30;;
1879;SDS011;49285;49.002;8.390;2023-11-21T03:59:44;4.43;;;2.00;;
1879;SDS011;49285;49.002;8.390;2023-11-21T04:02:10;4.40;;;2.10;;
1879;SDS011;49285;49.002;8.390;2023-11-21T04:04:36;3.83;;;1.90;;
1879;SDS011;49285;49.002;8.390;2023-11-21T04:07:01;6.90;;;2.63;;
1879;SDS011;49285;49.002;8.390;2023-11-21T04:09:28;9.83;;;2.53;;
1879;SDS011;49285;49.002;8.390;2023-11-21T04:11:53;4.77;;;2.20;;
1879;SDS011;49285;49.002;8.390;2023-11-21T04:14:20;5.97;;;2.50;;
1879;SDS011;49285;49.002;8.390;2023-11-21T04:16:46;2.83;;;2.00;;
1879;SDS011;49285;49.002;8.390;2023-11-21T04:19:11;4.60;;;1.83;;
1879;SDS011;49285;49.002;8.390;2023-11-21T04:21:39;5.97;;;2.20;;
1879;SDS011;49285;49.002;8.390;2023-11-21T04:24:06;7.77;;;2.37;;
1879;SDS011;49285;49.002;8.390;2023-11-21T04:26:32;6.07;;;2.20;;
1879;SDS011;49285;49.002;8.390;2023-11-21T04:28:57;8.60;;;2.23;;
1879;SDS011;49285;49.002;8.390;2023-11-21T04:31:23;5.10;;;1.87;;
1879;SDS011;49285;49.002;8.390;2023-11-21T04:33:48;3.30;;;1.87;;
1879;SDS011;49285;49.002;8.390;2023-11-21T04:36:14;6.70;;;2.13;;
1879;SDS011;49285;49.002;8.390;2023-11-21T04:38:39;5.90;;;2.10;;
1879;SDS011;49285;49.002;8.390;2023-11-21T04:41:05;9.07;;;2.40;;
1879;SDS011;49285;49.002;8.390;2023-11-21T04:43:31;7.40;;;2.40;;
1879;SDS011;49285;49.002;8.390;2023-11-21T04:45:57;4.30;;;2.30;;
1879;SDS011;49285;49.002;8.390;2023-11-21T04:48:22;3.80;;;2.03;;
1879;SDS011;49285;49.002;8.390;2023-11-21T04:50:48;5.67;;;1.90;;
1879;SDS011;49285;49.002;8.390;2023-11-21T04:53:13;9.77;;;3.10;;
1879;SDS011;49285;49.002;8.390;2023-11-21T04:55:39;4.70;;;2.37;;
1879;SDS011;49285;49.002;8.390;2023-11-21T04:58:05;4.83;;;2.33;;
1879;SDS011;49285;49.002;8.390;2023-11-21T05:00:31;8.50;;;2.70;;
1879;SDS011;49285;49.002;8.390;2023-11-21T05:02:56;4.13;;;2.13;;
1879;SDS011;49285;49.002;8.390;2023-11-21T05:05:22;6.27;;;2.77;;
1879;SDS011;49285;49.002;8.390;2023-11-21T05:07:48;8.87;;;2.90;;
1879;SDS011;49285;49.002;8.390;2023-11-21T05:10:14;4.10;;;2.53;;
1879;SDS011;49285;49.002;8.390;2023-11-21T05:12:40;9.53;;;2.73;;
1879;SDS011;49285;49.002;8.390;2023-11-21T05:15:07;6.47;;;3.40;;
1879;SDS011;49285;49.002;8.390;2023-11-21T05:17:39;5.70;;;2.70;;
1879;SDS011;49285;49.002;8.390;2023-11-21T05:20:12;4.53;;;2.70;;
1879;SDS011;49285;49.002;8.390;2023-11-21T05:22:39;5.10;;;2.80;;
1879;SDS011;49285;49.002;8.390;2023-11-21T05:25:05;8.60;;;3.10;;
1879;SDS011;49285;49.002;8.390;2023-11-21T05:27:35;4.27;;;2.40;;
1879;SDS011;49285;49.002;8.390;2023-11-21T05:30:04;5.27;;;2.67;;
1879;SDS011;49285;49.002;8.390;2023-11-21T05:32:30;4.47;;;3.13;;
1879;SDS011;49285;49.002;8.390;2023-11-21T05:34:56;6.97;;;3.10;;
1879;SDS011;49285;49.002;8.390;2023-11-21T05:37:22;9.47;;;2.97;;
1879;SDS011;49285;49.002;8.390;2023-11-21T05:39:48;4.43;;;2.90;;
1879;SDS011;49285;49.002;8.390;2023-11-21T05:42:14;5.87;;;2.87;;
1879;SDS011;49285;49.002;8.390;2023-11-21T05:44:42;4.20;;;2.83;;
1879;SDS011;49285;49.002;8.390;2023-11-21T05:47:08;5.40;;;3.33;;
1879;SDS011;49285;49.002;8.390;2023-11-21T05:49:34;5.87;;;3.10;;
1879;SDS011;49285;49.002;8.390;2023-11-21T05:52:00;8.47;;;3.73;;
1879;SDS011;49285;49.002;8.390;2023-11-21T05:54:26;4.80;;;3.23;;
1879;SDS011;49285;49.002;8.390;2023-11-21T05:56:51;6.37;;;3.43;;
1879;SDS011;49285;49.002;8.390;2023-11-21T05:59:17;3.83;;;3.37;;
1879;SDS011;49285;49.002;8.390;2023-11-21T06:01:42;6.07;;;3.50;;
1879;SDS011;49285;49.002;8.390;2023-11-21T06:04:08;6.83;;;3.40;;
1879;SDS011;49285;49.002;8.390;2023-11-21T06:06:34;4.50;;;3.50;;
1879;SDS011;49285;49.002;8.390;2023-11-21T06:09:00;4.73;;;3.20;;
1879;SDS011;49285;49.002;8.390;2023-11-21T06:11:26;4.37;;;3.07;;
1879;SDS011;49285;49.002;8.390;2023-11-21T06:13:51;3.77;;;2.90;;
1879;SDS011;49285;49.002;8.390;2023-11-21T06:16:18;6.40;;;3.60;;
1879;SDS011;49285;49.002;8.390;2023-11-21T06:18:44;3.00;;;2.70;;
1879;SDS011;49285;49.002;8.390;2023-11-21T06:21:11;5.67;;;3.63;;
1879;SDS011;49285;49.002;8.390;2023-11-21T06:23:36;6.40;;;3.60;;
1879;SDS011;49285;49.002;8.390;2023-11-21T06:26:02;3.93;;;3.00;;
1879;SDS011;49285;49.002;8.390;2023-11-21T06:28:29;4.10;;;3.10;;
1879;SDS011;49285;49.002;8.390;2023-11-21T06:30:55;5.00;;;3.23;;
1879;SDS011;49285;49.002;8.390;2023-11-21T06:33:22;8.73;;;3.90;;
1879;SDS011;49285;49.002;8.390;2023-11-21T06:35:47;5.17;;;3.90;;
1879;SDS011;49285;49.002;8.390;2023-11-21T06:38:13;6.50;;;3.70;;
1879;SDS011;49285;49.002;8.390;2023-11-21T06:40:38;7.53;;;4.30;;
1879;SDS011;49285;49.002;8.390;2023-11-21T06:43:05;5.10;;;4.03;;
1879;SDS011;49285;49.002;8.390;2023-11-21T06:45:32;5.70;;;4.37;;
1879;SDS011;49285;49.002;8.390;2023-11-21T06:47:59;7.13;;;4.03;;
1879;SDS011;49285;49.002;8.390;2023-11-21T06:50:25;4.90;;;4.40;;
1879;SDS011;49285;49.002;8.390;2023-11-21T06:52:50;9.63;;;4.97;;
1879;SDS011;49285;49.002;8.390;2023-11-21T06:55:16;6.97;;;5.57;;
1879;SDS011;49285;49.002;8.390;2023-11-21T06:57:42;5.77;;;4.73;;
1879;SDS011;49285;49.002;8.390;2023-11-21T07:00:08;11.20;;;6.00;;
1879;SDS011;49285;49.002;8.390;2023-11-21T07:02:34;9.73;;;6.10;;
1879;SDS011;49285;49.002;8.390;2023-11-21T07:05:00;7.17;;;5.10;;
1879;SDS011;49285;49.002;8.390;2023-11-21T07:07:26;6.90;;;6.20;;
1879;SDS011;49285;49.002;8.390;2023-11-21T07:09:52;13.10;;;6.50;;
1879;SDS011;49285;49.002;8.390;2023-11-21T07:12:18;8.13;;;5.80;;
1879;SDS011;49285;49.002;8.390;2023-11-21T07:14:43;9.80;;;6.43;;
1879;SDS011;49285;49.002;8.390;2023-11-21T07:17:10;9.00;;;6.87;;
1879;SDS011;49285;49.002;8.390;2023-11-21T07:19:37;12.63;;;7.30;;
1879;SDS011;49285;49.002;8.390;2023-11-21T07:22:03;10.20;;;6.40;;
1879;SDS011;49285;49.002;8.390;2023-11-21T07:24:30;10.87;;;6.87;;
1879;SDS011;49285;49.002;8.390;2023-11-21T07:26:57;15.57;;;7.30;;
1879;SDS011;49285;49.002;8.390;2023-11-21T07:29:23;9.40;;;6.80;;
1879;SDS011;49285;49.002;8.390;2023-11-21T07:31:54;11.17;;;7.50;;
1879;SDS011;49285;49.002;8.390;2023-11-21T07:34:20;10.17;;;7.50;;
1879;SDS011;49285;49.002;8.390;2023-11-21T07:36:46;11.73;;;7.17;;
1879;SDS011;49285;49.002;8.390;2023-11-21T07:39:12;9.13;;;7.30;;
1879;SDS011;49285;49.002;8.390;2023-11-21T07:41:38;6.90;;;4.87;;
1879;SDS011;49285;49.002;8.390;2023-11-21T07:44:10;7.40;;;4.93;;
1879;SDS011;49285;49.002;8.390;2023-11-21T07:46:35;7.00;;;4.07;;
1879;SDS011;49285;49.002;8.390;2023-11-21T07:49:01;5.30;;;3.90;;
1879;SDS011;49285;49.002;8.390;2023-11-21T07:51:26;9.17;;;4.10;;
1879;SDS011;49285;49.002;8.390;2023-11-21T07:53:52;5.13;;;4.20;;
1879;SDS011;49285;49.002;8.390;2023-11-21T07:56:18;6.80;;;4.57;;
1879;SDS011;49285;49.002;8.390;2023-11-21T07:58:43;5.63;;;4.30;;
1879;SDS011;49285;49.002;8.390;2023-11-21T08:01:09;6.03;;;4.57;;
1879;SDS011;49285;49.002;8.390;2023-11-21T08:03:35;10.70;;;7.67;;
1879;SDS011;49285;49.002;8.390;2023-11-21T08:06:01;6.63;;;4.20;;
1879;SDS011;49285;49.002;8.390;2023-11-21T08:08:28;6.10;;;4.63;;
1879;SDS011;49285;49.002;8.390;2023-11-21T08:10:54;6.90;;;4.10;;
1879;SDS011;49285;49.002;8.390;2023-11-21T08:13:23;6.20;;;4.83;;
1879;SDS011;49285;49.002;8.390;2023-11-21T08:15:55;6.27;;;4.60;;
1879;SDS011;49285;49.002;8.390;2023-11-21T08:18:26;6.60;;;5.70;;
1879;SDS011;49285;49.002;8.390;2023-11-21T08:20:52;6.87;;;5.30;;
1879;SDS011;49285;49.002;8.390;2023-11-21T08:23:20;6.70;;;5.80;;
1879;SDS011;49285;49.002;8.390;2023-11-21T08:25:50;7.73;;;6.50;;
1879;SDS011;49285;49.002;8.390;2023-11-21T08:28:16;7.70;;;6.90;;
1879;SDS011;49285;49.002;8.390;2023-11-21T08:30:41;10.40;;;6.90;;
1879;SDS011;49285;49.002;8.390;2023-11-21T08:33:07;8.80;;;6.70;;
1879;SDS011;49285;49.002;8.390;2023-11-21T08:35:33;11.07;;;7.10;;
1879;SDS011;49285;49.002;8.390;2023-11-21T08:37:59;16.53;;;7.73;;
1879;SDS011;49285;49.002;8.390;2023-11-21T08:40:25;21.33;;;15.13;;
1879;SDS011;49285;49.002;8.390;2023-11-21T08:42:51;9.63;;;8.00;;
1879;SDS011;49285;49.002;8.390;2023-11-21T08:45:19;10.30;;;7.47;;
1879;SDS011;49285;49.002;8.390;2023-11-21T08:47:46;8.40;;;7.53;;
1879;SDS011;49285;49.002;8.390;2023-11-21T08:50:12;7.80;;;6.63;;
1879;SDS011;49285;49.002;8.390;2023-11-21T08:52:38;10.30;;;7.77;;
1879;SDS011;49285;49.002;8.390;2023-11-21T08:55:05;9.30;;;7.37;;
1879;SDS011;49285;49.002;8.390;2023-11-21T08:57:36;10.23;;;7.30;;
1879;SDS011;49285;49.002;8.390;2023-11-21T09:00:05;10.23;;;7.23;;
1879;SDS011;49285;49.002;8.390;2023-11-21T09:02:42;10.17;;;7.97;;
1879;SDS011;49285;49.002;8.390;2023-11-21T09:05:09;11.63;;;7.60;;
1879;SDS011;49285;49.002;8.390;2023-11-21T09:07:38;11.00;;;7.90;;
1879;SDS011;49285;49.002;8.390;2023-11-21T09:10:06;12.13;;;7.20;;
1879;SDS011;49285;49.002;8.390;2023-11-21T09:12:32;17.17;;;7.73;;
1879;SDS011;49285;49.002;8.390;2023-11-21T09:15:02;14.00;;;8.23;;
1879;SDS011;49285;49.002;8.390;2023-11-21T09:17:29;9.07;;;7.90;;
1879;SDS011;49285;49.002;8.390;2023-11-21T09:19:55;11.60;;;8.17;;
1879;SDS011;49285;49.002;8.390;2023-11-21T09:22:22;10.37;;;8.77;;
1879;SDS011;49285;49.002;8.390;2023-11-21T09:24:49;10.40;;;7.73;;
1879;SDS011;49285;49.002;8.390;2023-11-21T09:27:15;11.23;;;8.13;;
1879;SDS011;49285;49.002;8.390;2023-11-21T09:29:42;10.70;;;8.77;;
1879;SDS011;49285;49.002;8.390;2023-11-21T09:32:07;11.50;;;8.80;;
1879;SDS011;49285;49.002;8.390;2023-11-21T09:34:35;17.53;;;8.73;;
1879;SDS011;49285;49.002;8.390;2023-11-21T09:37:03;9.33;;;7.73;;
1879;SDS011;49285;49.002;8.390;2023-11-21T09:39:31;9.23;;;8.00;;
1879;SDS011;49285;49.002;8.390;2023-11-21T09:41:57;10.20;;;8.20;;
1879;SDS011;49285;49.002;8.390;2023-11-21T09:44:38;9.30;;;7.77;;
1879;SDS011;49285;49.002;8.390;2023-11-21T09:47:24;9.57;;;8.57;;
1879;SDS011;49285;49.002;8.390;2023-11-21T09:49:50;9.53;;;7.93;;
1879;SDS011;49285;49.002;8.390;2023-11-21T09:52:22;8.90;;;7.77;;
1879;SDS011;49285;49.002;8.390;2023-11-21T09:54:50;11.03;;;8.90;;
1879;SDS011;49285;49.002;8.390;2023-11-21T09:57:18;10.60;;;7.90;;
1879;SDS011;49285;49.002;8.390;2023-11-21T09:59:46;10.20;;;9.10;;
1879;SDS011;49285;49.002;8.390;2023-11-21T10:02:15;10.20;;;8.40;;
1879;SDS011;49285;49.002;8.390;2023-11-21T10:04:43;10.57;;;8.43;;
1879;SDS011;49285;49.002;8.390;2023-11-21T10:07:10;11.30;;;8.53;;
1879;SDS011;49285;49.002;8.390;2023-11-21T10:09:40;11.90;;;7.90;;
1879;SDS011;49285;49.002;8.390;2023-11-21T10:12:06;9.37;;;8.13;;
1879;SDS011;49285;49.002;8.390;2023-11-21T10:14:34;12.37;;;8.40;;
1879;SDS011;49285;49.002;8.390;2023-11-21T10:17:05;9.13;;;7.70;;
1879;SDS011;49285;49.002;8.390;2023-11-21T10:19:33;8.97;;;7.30;;
1879;SDS011;49285;49.002;8.390;2023-11-21T10:22:00;15.03;;;7.63;;
1879;SDS011;49285;49.002;8.390;2023-11-21T10:24:27;9.93;;;6.63;;
1879;SDS011;49285;49.002;8.390;2023-11-21T10:26:52;8.70;;;6.80;;
1879;SDS011;49285;49.002;8.390;2023-11-21T10:29:18;7.20;;;6.50;;
1879;SDS011;49285;49.002;8.390;2023-11-21T10:31:48;9.07;;;6.53;;
1879;SDS011;49285;49.002;8.390;2023-11-21T10:34:15;6.23;;;5.60;;
1879;SDS011;49285;49.002;8.390;2023-11-21T10:36:45;6.60;;;5.60;;
1879;SDS011;49285;49.002;8.390;2023-11-21T10:39:14;7.13;;;5.77;;
1879;SDS011;49285;49.002;8.390;2023-11-21T10:41:45;6.47;;;5.50;;
1879;SDS011;49285;49.002;8.390;2023-11-21T10:44:13;7.33;;;5.30;;
1879;SDS011;49285;49.002;8.390;2023-11-21T10:46:52;7.80;;;5.57;;
1879;SDS011;49285;49.002;8.390;2023-11-21T10:49:25;6.70;;;5.47;;
1879;SDS011;49285;49.002;8.390;2023-11-21T10:51:52;7.80;;;5.67;;
1879;SDS011;49285;49.002;8.390;2023-11-21T10:54:19;8.97;;;6.30;;
1879;SDS011;49285;49.002;8.390;2023-11-21T10:56:46;6.63;;;5.93;;
1879;SDS011;49285;49.002;8.390;2023-11-21T10:59:16;8.00;;;5.37;;
1879;SDS011;49285;49.002;8.390;2023-11-21T11:01:42;5.93;;;5.03;;
1879;SDS011;49285;49.002;8.390;2023-11-21T11:04:11;6.73;;;5.30;;
1879;SDS011;49285;49.002;8.390;2023-11-21T11:06:44;6.57;;;5.40;;
1879;SDS011;49285;49.002;8.390;2023-11-21T11:09:28;6.43;;;5.10;;
1879;SDS011;49285;49.002;8.390;2023-11-21T11:11:58;8.43;;;6.10;;
1879;SDS011;49285;49.002;8.390;2023-11-21T11:14:24;8.17;;;6.30;;
1879;SDS011;49285;49.002;8.390;2023-11-21T11:16:53;7.73;;;5.57;;
1879;SDS011;49285;49.002;8.390;2023-11-21T11:19:20;7.70;;;5.30;;
1879;SDS011;49285;49.002;8.390;2023-11-21T11:28:21;6.17;;;5.53;;
1879;SDS011;49285;49.002;8.390;2023-11-21T11:38:36;6.27;;;5.40;;
1879;SDS011;49285;49.002;8.390;2023-11-21T11:41:02;6.70;;;5.90;;
1879;SDS011;49285;49.002;8.390;2023-11-21T11:43:29;6.23;;;5.63;;
1879;SDS011;49285;49.002;8.390;2023-11-21T11:45:57;6.23;;;5.30;;
1879;SDS011;49285;49.002;8.390;2023-11-21T11:48:24;6.43;;;5.70;;
1879;SDS011;49285;49.002;8.390;2023-11-21T11:51:03;7.67;;;6.00;;
1879;SDS011;49285;49.002;8.390;2023-11-21T11:53:36;8.90;;;6.60;;
1879;SDS011;49285;49.002;8.390;2023-11-21T11:58:56;7.37;;;6.43;;
1879;SDS011;49285;49.002;8.390;2023-11-21T12:01:24;7.77;;;6.97;;
1879;SDS011;49285;49.002;8.390;2023-11-21T12:06:45;7.33;;;6.57;;
1879;SDS011;49285;49.002;8.390;2023-11-21T12:09:18;7.53;;;6.73;;
1879;SDS011;49285;49.002;8.390;2023-11-21T12:11:48;7.40;;;6.37;;
1879;SDS011;49285;49.002;8.390;2023-11-21T12:14:14;7.73;;;5.90;;
1879;SDS011;49285;49.002;8.390;2023-11-21T12:16:40;8.00;;;6.73;;
1879;SDS011;49285;49.002;8.390;2023-11-21T12:19:12;7.90;;;7.10;;
1879;SDS011;49285;49.002;8.390;2023-11-21T12:21:38;7.17;;;6.47;;
1879;SDS011;49285;49.002;8.390;2023-11-21T12:24:06;7.87;;;5.90;;
1879;SDS011;49285;49.002;8.390;2023-11-21T12:26:34;8.00;;;6.70;;
1879;SDS011;49285;49.002;8.390;2023-11-21T12:29:01;5.50;;;5.00;;
1879;SDS011;49285;49.002;8.390;2023-11-21T12:31:29;7.17;;;5.90;;
1879;SDS011;49285;49.002;8.390;2023-11-21T12:33:55;8.27;;;6.60;;
1879;SDS011;49285;49.002;8.390;2023-11-21T12:36:21;7.33;;;6.60;;
1879;SDS011;49285;49.002;8.390;2023-11-21T12:38:47;10.57;;;6.30;;
1879;SDS011;49285;49.002;8.390;2023-11-21T12:41:13;9.00;;;6.80;;
1879;SDS011;49285;49.002;8.390;2023-11-21T12:43:40;7.20;;;6.50;;
1879;SDS011;49285;49.002;8.390;2023-11-21T12:46:06;8.20;;;7.40;;
1879;SDS011;49285;49.002;8.390;2023-11-21T12:48:37;8.77;;;7.57;;
1879;SDS011;49285;49.002;8.390;2023-11-21T12:51:07;9.87;;;6.83;;
1879;SDS011;49285;49.002;8.390;2023-11-21T12:53:34;9.50;;;6.23;;
1879;SDS011;49285;49.002;8.390;2023-11-21T12:56:06;9.07;;;7.33;;
1879;SDS011;49285;49.002;8.390;2023-11-21T12:58:34;8.50;;;7.27;;
1879;SDS011;49285;49.002;8.390;2023-11-21T13:01:07;8.33;;;6.80;;
1879;SDS011;49285;49.002;8.390;2023-11-21T13:03:37;9.13;;;8.13;;
1879;SDS011;49285;49.002;8.390;2023-11-21T13:06:04;12.00;;;8.07;;
1879;SDS011;49285;49.002;8.390;2023-11-21T13:08:30;9.40;;;7.20;;
1879;SDS011;49285;49.002;8.390;2023-11-21T13:10:57;8.73;;;7.77;;
1879;SDS011;49285;49.002;8.390;2023-11-21T13:13:24;9.40;;;6.93;;
1879;SDS011;49285;49.002;8.390;2023-11-21T13:15:54;9.37;;;7.23;;
1879;SDS011;49285;49.002;8.390;2023-11-21T13:18:21;7.27;;;6.57;;
1879;SDS011;49285;49.002;8.390;2023-11-21T13:20:48;8.60;;;6.80;;
1879;SDS011;49285;49.002;8.390;2023-11-21T13:23:14;7.63;;;6.63;;
1879;SDS011;49285;49.002;8.390;2023-11-21T13:25:43;6.10;;;5.50;;
1879;SDS011;49285;49.002;8.390;2023-11-21T13:28:10;6.67;;;5.97;;
1879;SDS011;49285;49.002;8.390;2023-11-21T13:30:36;10.80;;;6.23;;
1879;SDS011;49285;49.002;8.390;2023-11-21T13:33:05;7.70;;;6.20;;
1879;SDS011;49285;49.002;8.390;2023-11-21T13:35:33;7.47;;;5.93;;
1879;SDS011;49285;49.002;8.390;2023-11-21T13:38:06;11.70;;;7.23;;
1879;SDS011;49285;49.002;8.390;2023-11-21T13:40:32;8.60;;;6.67;;
1879;SDS011;49285;49.002;8.390;2023-11-21T13:43:04;6.17;;;5.40;;
1879;SDS011;49285;49.002;8.390;2023-11-21T13:45:31;10.00;;;6.67;;
1879;SDS011;49285;49.002;8.390;2023-11-21T13:47:56;6.83;;;5.20;;
1879;SDS011;49285;49.002;8.390;2023-11-21T13:50:26;10.30;;;6.20;;
1879;SDS011;49285;49.002;8.390;2023-11-21T13:52:58;9.37;;;6.17;;
1879;SDS011;49285;49.002;8.390;2023-11-21T13:55:33;6.90;;;5.03;;
1879;SDS011;49285;49.002;8.390;2023-11-21T13:58:00;6.67;;;5.00;;
1879;SDS011;49285;49.002;8.390;2023-11-21T14:00:34;13.13;;;7.93;;
1879;SDS011;49285;49.002;8.390;2023-11-21T14:03:17;11.50;;;9.73;;
1879;SDS011;49285;49.002;8.390;2023-11-21T14:05:46;13.93;;;6.90;;
1879;SDS011;49285;49.002;8.390;2023-11-21T14:08:16;6.77;;;6.07;;
1879;SDS011;49285;49.002;8.390;2023-11-21T14:10:46;5.60;;;4.63;;
1879;SDS011;49285;49.002;8.390;2023-11-21T14:13:22;7.20;;;4.43;;
1879;SDS011;49285;49.002;8.390;2023-11-21T14:15:50;5.40;;;4.53;;
1879;SDS011;49285;49.002;8.390;2023-11-21T14:18:22;5.57;;;4.83;;
1879;SDS011;49285;49.002;8.390;2023-11-21T14:20:55;6.10;;;4.77;;
1879;SDS011;49285;49.002;8.390;2023-11-21T14:23:21;5.60;;;4.77;;
1879;SDS011;49285;49.002;8.390;2023-11-21T14:25:48;5.47;;;4.97;;
1879;SDS011;49285;49.002;8.390;2023-11-21T14:28:14;6.30;;;5.27;;
1879;SDS011;49285;49.002;8.390;2023-11-21T14:30:40;6.70;;;5.23;;
1879;SDS011;49285;49.002;8.390;2023-11-21T14:33:07;6.70;;;5.37;;
1879;SDS011;49285;49.002;8.390;2023-11-21T14:35:34;5.80;;;5.10;;
1879;SDS011;49285;49.002;8.390;2023-11-21T14:38:00;7.07;;;5.50;;
1879;SDS011;49285;49.002;8.390;2023-11-21T14:40:27;7.63;;;6.03;;
1879;SDS011;49285;49.002;8.390;2023-11-21T14:42:58;6.47;;;5.50;;
1879;SDS011;49285;49.002;8.390;2023-11-21T14:45:26;7.03;;;5.60;;
1879;SDS011;49285;49.002;8.390;2023-11-21T14:47:53;7.30;;;5.33;;
1879;SDS011;49285;49.002;8.390;2023-11-21T14:50:31;7.07;;;5.67;;
1879;SDS011;49285;49.002;8.390;2023-11-21T14:53:06;5.73;;;5.23;;
1879;SDS011;49285;49.002;8.390;2023-11-21T14:55:33;6.87;;;4.83;;
1879;SDS011;49285;49.002;8.390;2023-11-21T14:58:19;6.00;;;5.50;;
1879;SDS011;49285;49.002;8.390;2023-11-21T15:00:57;7.00;;;6.10;;
1879;SDS011;49285;49.002;8.390;2023-11-21T15:03:24;9.53;;;5.90;;
1879;SDS011;49285;49.002;8.390;2023-11-21T15:05:59;6.17;;;5.10;;
1879;SDS011;49285;49.002;8.390;2023-11-21T15:08:43;5.13;;;4.63;;
1879;SDS011;49285;49.002;8.390;2023-11-21T15:11:10;6.57;;;5.57;;
1879;SDS011;49285;49.002;8.390;2023-11-21T15:13:41;7.60;;;5.90;;
1879;SDS011;49285;49.002;8.390;2023-11-21T15:16:07;7.23;;;5.87;;
1879;SDS011;49285;49.002;8.390;2023-11-21T15:18:37;7.03;;;5.53;;
1879;SDS011;49285;49.002;8.390;2023-11-21T15:21:03;9.30;;;5.77;;